sensor_id;sensor_type;location;lat;lon;timestamp;P1;durP1;ratioP1;P2;durP2;ratioP2
21152;SDS011;10734;44.792;20.482;2022-10-19T00:01:27;24.60;;;12.45;;
21152;SDS011;10734;44.792;20.482;2022-10-19T00:03:54;28.77;;;12.38;;
21152;SDS011;10734;44.792;20.482;2022-10-19T00:06:25;21.52;;;11.93;;
21152;SDS011;10734;44.792;20.482;2022-10-19T00:09:09;25.63;;;13.25;;
21152;SDS011;10734;44.792;20.482;2022-10-19T00:11:41;27.17;;;11.85;;
21152;SDS011;10734;44.792;20.482;2022-10-19T00:14:12;22.17;;;11.48;;
21152;SDS011;10734;44.792;20.482;2022-10-19T00:19:13;26.88;;;13.25;;
21152;SDS011;10734;44.792;20.482;2022-10-19T00:21:44;24.58;;;11.55;;
21152;SDS011;10734;44.792;20.482;2022-10-19T00:24:24;34.05;;;13.98;;
21152;SDS011;10734;44.792;20.482;2022-10-19T00:26:51;28.35;;;13.30;;
21152;SDS011;10734;44.792;20.482;2022-10-19T00:29:19;25.20;;;12.35;;
21152;SDS011;10734;44.792;20.482;2022-10-19T00:31:50;28.70;;;12.05;;
21152;SDS011;10734;44.792;20.482;2022-10-19T00:34:17;22.13;;;12.00;;
21152;SDS011;10734;44.792;20.482;2022-10-19T00:36:44;28.38;;;13.23;;
21152;SDS011;10734;44.792;20.482;2022-10-19T00:39:13;22.70;;;13.05;;
21152;SDS011;10734;44.792;20.482;2022-10-19T00:41:43;29.65;;;12.55;;
21152;SDS011;10734;44.792;20.482;2022-10-19T00:46:43;24.55;;;12.75;;
21152;SDS011;10734;44.792;20.482;2022-10-19T00:52:17;21.85;;;11.18;;
21152;SDS011;10734;44.792;20.482;2022-10-19T00:55:09;25.30;;;11.65;;
21152;SDS011;10734;44.792;20.482;2022-10-19T00:57:38;20.83;;;10.60;;
21152;SDS011;10734;44.792;20.482;2022-10-19T01:00:07;22.77;;;11.85;;
21152;SDS011;10734;44.792;20.482;2022-10-19T01:02:35;23.00;;;10.63;;
21152;SDS011;10734;44.792;20.482;2022-10-19T01:05:03;20.02;;;10.90;;
21152;SDS011;10734;44.792;20.482;2022-10-19T01:07:32;24.85;;;11.23;;
21152;SDS011;10734;44.792;20.482;2022-10-19T01:09:59;23.70;;;12.13;;
21152;SDS011;10734;44.792;20.482;2022-10-19T01:18:08;22.50;;;11.18;;
21152;SDS011;10734;44.792;20.482;2022-10-19T01:20:51;23.73;;;11.18;;
21152;SDS011;10734;44.792;20.482;2022-10-19T01:32:12;19.88;;;11.73;;
21152;SDS011;10734;44.792;20.482;2022-10-19T01:34:52;27.23;;;11.55;;
21152;SDS011;10734;44.792;20.482;2022-10-19T01:43:22;19.23;;;10.70;;
21152;SDS011;10734;44.792;20.482;2022-10-19T01:46:12;19.67;;;10.15;;
21152;SDS011;10734;44.792;20.482;2022-10-19T01:48:54;22.05;;;10.48;;
21152;SDS011;10734;44.792;20.482;2022-10-19T01:51:32;19.23;;;10.98;;
21152;SDS011;10734;44.792;20.482;2022-10-19T01:54:05;22.17;;;10.85;;
21152;SDS011;10734;44.792;20.482;2022-10-19T01:56:37;20.50;;;11.27;;
21152;SDS011;10734;44.792;20.482;2022-10-19T01:59:09;26.38;;;11.05;;
21152;SDS011;10734;44.792;20.482;2022-10-19T02:01:39;25.48;;;11.20;;
21152;SDS011;10734;44.792;20.482;2022-10-19T02:04:11;27.02;;;11.75;;
21152;SDS011;10734;44.792;20.482;2022-10-19T02:06:40;19.10;;;10.80;;
21152;SDS011;10734;44.792;20.482;2022-10-19T02:09:08;21.83;;;10.32;;
21152;SDS011;10734;44.792;20.482;2022-10-19T02:11:36;22.50;;;10.48;;
21152;SDS011;10734;44.792;20.482;2022-10-19T02:14:04;22.70;;;11.15;;
21152;SDS011;10734;44.792;20.482;2022-10-19T02:16:40;20.55;;;10.20;;
21152;SDS011;10734;44.792;20.482;2022-10-19T02:22:18;27.35;;;11.50;;
21152;SDS011;10734;44.792;20.482;2022-10-19T02:24:48;18.50;;;10.20;;
21152;SDS011;10734;44.792;20.482;2022-10-19T02:27:14;21.95;;;11.50;;
21152;SDS011;10734;44.792;20.482;2022-10-19T02:29:43;26.17;;;13.52;;
21152;SDS011;10734;44.792;20.482;2022-10-19T02:32:11;22.85;;;12.98;;
21152;SDS011;10734;44.792;20.482;2022-10-19T02:34:40;28.30;;;13.43;;
21152;SDS011;10734;44.792;20.482;2022-10-19T02:37:08;24.85;;;12.90;;
21152;SDS011;10734;44.792;20.482;2022-10-19T02:39:37;21.80;;;11.93;;
21152;SDS011;10734;44.792;20.482;2022-10-19T02:47:35;25.17;;;13.85;;
21152;SDS011;10734;44.792;20.482;2022-10-19T02:50:09;28.33;;;13.98;;
21152;SDS011;10734;44.792;20.482;2022-10-19T02:52:40;29.70;;;14.02;;
21152;SDS011;10734;44.792;20.482;2022-10-19T02:55:08;40.03;;;17.10;;
21152;SDS011;10734;44.792;20.482;2022-10-19T02:57:36;33.45;;;15.55;;
21152;SDS011;10734;44.792;20.482;2022-10-19T03:00:04;34.65;;;16.88;;
21152;SDS011;10734;44.792;20.482;2022-10-19T03:02:33;37.05;;;16.17;;
21152;SDS011;10734;44.792;20.482;2022-10-19T03:05:18;29.73;;;16.25;;
21152;SDS011;10734;44.792;20.482;2022-10-19T03:07:45;34.35;;;18.83;;
21152;SDS011;10734;44.792;20.482;2022-10-19T03:10:12;46.15;;;20.20;;
21152;SDS011;10734;44.792;20.482;2022-10-19T03:12:38;35.72;;;20.50;;
21152;SDS011;10734;44.792;20.482;2022-10-19T03:15:05;37.00;;;20.48;;
21152;SDS011;10734;44.792;20.482;2022-10-19T03:17:32;35.25;;;20.50;;
21152;SDS011;10734;44.792;20.482;2022-10-19T03:19:59;44.03;;;22.30;;
21152;SDS011;10734;44.792;20.482;2022-10-19T03:22:26;30.92;;;20.05;;
21152;SDS011;10734;44.792;20.482;2022-10-19T03:24:52;39.00;;;21.50;;
21152;SDS011;10734;44.792;20.482;2022-10-19T03:27:19;45.00;;;21.92;;
21152;SDS011;10734;44.792;20.482;2022-10-19T03:29:45;35.15;;;21.52;;
21152;SDS011;10734;44.792;20.482;2022-10-19T03:32:12;45.03;;;23.63;;
21152;SDS011;10734;44.792;20.482;2022-10-19T03:34:39;41.88;;;22.85;;
21152;SDS011;10734;44.792;20.482;2022-10-19T03:37:05;38.60;;;22.25;;
21152;SDS011;10734;44.792;20.482;2022-10-19T03:39:33;42.50;;;22.25;;
21152;SDS011;10734;44.792;20.482;2022-10-19T03:42:00;40.88;;;23.52;;
21152;SDS011;10734;44.792;20.482;2022-10-19T03:44:27;38.47;;;22.38;;
21152;SDS011;10734;44.792;20.482;2022-10-19T03:46:53;39.60;;;24.23;;
21152;SDS011;10734;44.792;20.482;2022-10-19T03:49:20;48.55;;;25.05;;
21152;SDS011;10734;44.792;20.482;2022-10-19T03:51:47;50.20;;;24.85;;
21152;SDS011;10734;44.792;20.482;2022-10-19T03:54:14;49.53;;;26.88;;
21152;SDS011;10734;44.792;20.482;2022-10-19T03:56:42;47.03;;;26.33;;
21152;SDS011;10734;44.792;20.482;2022-10-19T03:59:12;47.28;;;25.17;;
21152;SDS011;10734;44.792;20.482;2022-10-19T04:01:41;49.10;;;28.17;;
21152;SDS011;10734;44.792;20.482;2022-10-19T04:04:12;45.97;;;27.90;;
21152;SDS011;10734;44.792;20.482;2022-10-19T04:06:41;52.33;;;29.33;;
21152;SDS011;10734;44.792;20.482;2022-10-19T04:09:13;59.53;;;32.28;;
21152;SDS011;10734;44.792;20.482;2022-10-19T04:11:41;52.88;;;30.80;;
21152;SDS011;10734;44.792;20.482;2022-10-19T04:14:09;55.05;;;33.42;;
21152;SDS011;10734;44.792;20.482;2022-10-19T04:16:58;59.90;;;33.58;;
21152;SDS011;10734;44.792;20.482;2022-10-19T04:19:43;58.42;;;34.60;;
21152;SDS011;10734;44.792;20.482;2022-10-19T04:22:10;56.85;;;34.42;;
21152;SDS011;10734;44.792;20.482;2022-10-19T04:24:36;68.47;;;35.08;;
21152;SDS011;10734;44.792;20.482;2022-10-19T04:27:03;61.13;;;38.33;;
21152;SDS011;10734;44.792;20.482;2022-10-19T04:29:30;62.33;;;39.90;;
21152;SDS011;10734;44.792;20.482;2022-10-19T04:31:56;71.18;;;40.42;;
21152;SDS011;10734;44.792;20.482;2022-10-19T04:34:23;70.88;;;43.80;;
21152;SDS011;10734;44.792;20.482;2022-10-19T04:36:51;80.45;;;44.88;;
21152;SDS011;10734;44.792;20.482;2022-10-19T04:39:18;85.38;;;46.83;;
21152;SDS011;10734;44.792;20.482;2022-10-19T04:41:45;73.53;;;46.03;;
21152;SDS011;10734;44.792;20.482;2022-10-19T04:44:11;90.50;;;49.95;;
21152;SDS011;10734;44.792;20.482;2022-10-19T04:46:38;68.20;;;45.72;;
21152;SDS011;10734;44.792;20.482;2022-10-19T04:49:05;74.80;;;45.08;;
21152;SDS011;10734;44.792;20.482;2022-10-19T04:51:32;69.00;;;41.70;;
21152;SDS011;10734;44.792;20.482;2022-10-19T04:53:59;78.95;;;46.22;;
21152;SDS011;10734;44.792;20.482;2022-10-19T04:56:27;70.75;;;44.50;;
21152;SDS011;10734;44.792;20.482;2022-10-19T04:58:55;68.43;;;45.40;;
21152;SDS011;10734;44.792;20.482;2022-10-19T05:01:23;59.88;;;41.72;;
21152;SDS011;10734;44.792;20.482;2022-10-19T05:03:54;77.97;;;45.80;;
21152;SDS011;10734;44.792;20.482;2022-10-19T05:06:23;75.03;;;45.63;;
21152;SDS011;10734;44.792;20.482;2022-10-19T05:08:51;83.43;;;51.25;;
21152;SDS011;10734;44.792;20.482;2022-10-19T05:11:18;88.93;;;54.22;;
21152;SDS011;10734;44.792;20.482;2022-10-19T05:13:46;88.78;;;54.22;;
21152;SDS011;10734;44.792;20.482;2022-10-19T05:16:14;79.10;;;49.03;;
21152;SDS011;10734;44.792;20.482;2022-10-19T05:18:46;79.88;;;49.58;;
21152;SDS011;10734;44.792;20.482;2022-10-19T05:21:15;84.43;;;50.85;;
21152;SDS011;10734;44.792;20.482;2022-10-19T05:23:42;97.88;;;52.97;;
21152;SDS011;10734;44.792;20.482;2022-10-19T05:26:16;76.78;;;50.55;;
21152;SDS011;10734;44.792;20.482;2022-10-19T05:28:47;80.40;;;50.25;;
21152;SDS011;10734;44.792;20.482;2022-10-19T05:31:16;86.90;;;50.75;;
21152;SDS011;10734;44.792;20.482;2022-10-19T05:33:44;74.25;;;49.80;;
21152;SDS011;10734;44.792;20.482;2022-10-19T05:36:19;85.07;;;50.03;;
21152;SDS011;10734;44.792;20.482;2022-10-19T05:38:52;76.82;;;49.58;;
21152;SDS011;10734;44.792;20.482;2022-10-19T05:41:20;82.22;;;47.65;;
21152;SDS011;10734;44.792;20.482;2022-10-19T05:43:51;73.05;;;45.38;;
21152;SDS011;10734;44.792;20.482;2022-10-19T05:46:20;70.45;;;44.55;;
21152;SDS011;10734;44.792;20.482;2022-10-19T05:48:47;74.72;;;47.72;;
21152;SDS011;10734;44.792;20.482;2022-10-19T05:51:14;80.97;;;46.20;;
21152;SDS011;10734;44.792;20.482;2022-10-19T05:53:43;69.32;;;44.25;;
21152;SDS011;10734;44.792;20.482;2022-10-19T05:56:13;80.72;;;45.70;;
21152;SDS011;10734;44.792;20.482;2022-10-19T05:58:42;74.32;;;46.05;;
21152;SDS011;10734;44.792;20.482;2022-10-19T06:01:09;71.57;;;44.13;;
21152;SDS011;10734;44.792;20.482;2022-10-19T06:03:36;76.50;;;42.60;;
21152;SDS011;10734;44.792;20.482;2022-10-19T06:06:03;71.22;;;41.90;;
21152;SDS011;10734;44.792;20.482;2022-10-19T06:08:31;65.65;;;42.70;;
21152;SDS011;10734;44.792;20.482;2022-10-19T06:13:37;62.30;;;39.90;;
21152;SDS011;10734;44.792;20.482;2022-10-19T06:16:05;72.35;;;38.95;;
21152;SDS011;10734;44.792;20.482;2022-10-19T06:18:33;58.92;;;39.67;;
21152;SDS011;10734;44.792;20.482;2022-10-19T06:21:02;60.67;;;36.90;;
21152;SDS011;10734;44.792;20.482;2022-10-19T06:23:33;56.45;;;38.60;;
21152;SDS011;10734;44.792;20.482;2022-10-19T06:26:06;56.13;;;38.13;;
21152;SDS011;10734;44.792;20.482;2022-10-19T06:28:34;65.03;;;37.30;;
21152;SDS011;10734;44.792;20.482;2022-10-19T06:31:02;58.67;;;37.78;;
21152;SDS011;10734;44.792;20.482;2022-10-19T06:33:34;55.25;;;34.13;;
21152;SDS011;10734;44.792;20.482;2022-10-19T06:36:05;52.28;;;34.38;;
21152;SDS011;10734;44.792;20.482;2022-10-19T06:38:35;57.33;;;33.80;;
21152;SDS011;10734;44.792;20.482;2022-10-19T06:41:02;58.22;;;32.80;;
21152;SDS011;10734;44.792;20.482;2022-10-19T06:43:29;44.45;;;31.35;;
21152;SDS011;10734;44.792;20.482;2022-10-19T06:45:56;49.53;;;29.83;;
21152;SDS011;10734;44.792;20.482;2022-10-19T06:48:23;45.22;;;29.10;;
21152;SDS011;10734;44.792;20.482;2022-10-19T06:50:56;48.30;;;31.13;;
21152;SDS011;10734;44.792;20.482;2022-10-19T06:53:31;51.80;;;28.73;;
21152;SDS011;10734;44.792;20.482;2022-10-19T06:56:00;43.38;;;27.55;;
21152;SDS011;10734;44.792;20.482;2022-10-19T06:58:28;36.38;;;25.77;;
21152;SDS011;10734;44.792;20.482;2022-10-19T07:00:59;40.40;;;28.45;;
21152;SDS011;10734;44.792;20.482;2022-10-19T07:03:27;44.65;;;26.95;;
21152;SDS011;10734;44.792;20.482;2022-10-19T07:05:58;51.47;;;28.15;;
21152;SDS011;10734;44.792;20.482;2022-10-19T07:08:26;51.13;;;29.73;;
21152;SDS011;10734;44.792;20.482;2022-10-19T07:10:55;53.88;;;27.45;;
21152;SDS011;10734;44.792;20.482;2022-10-19T07:13:24;44.13;;;25.65;;
21152;SDS011;10734;44.792;20.482;2022-10-19T07:15:58;35.10;;;25.50;;
21152;SDS011;10734;44.792;20.482;2022-10-19T07:18:28;43.28;;;25.90;;
21152;SDS011;10734;44.792;20.482;2022-10-19T07:20:59;38.53;;;25.27;;
21152;SDS011;10734;44.792;20.482;2022-10-19T07:23:27;44.15;;;27.15;;
21152;SDS011;10734;44.792;20.482;2022-10-19T07:25:55;37.20;;;25.35;;
21152;SDS011;10734;44.792;20.482;2022-10-19T07:28:27;37.30;;;25.02;;
21152;SDS011;10734;44.792;20.482;2022-10-19T07:30:55;36.63;;;25.25;;
21152;SDS011;10734;44.792;20.482;2022-10-19T07:33:22;52.78;;;27.25;;
21152;SDS011;10734;44.792;20.482;2022-10-19T07:35:49;37.33;;;25.92;;
21152;SDS011;10734;44.792;20.482;2022-10-19T07:38:16;41.92;;;24.35;;
21152;SDS011;10734;44.792;20.482;2022-10-19T07:40:42;40.90;;;24.38;;
21152;SDS011;10734;44.792;20.482;2022-10-19T07:43:12;44.40;;;25.58;;
21152;SDS011;10734;44.792;20.482;2022-10-19T07:45:39;37.03;;;25.38;;
21152;SDS011;10734;44.792;20.482;2022-10-19T07:48:06;38.58;;;24.58;;
21152;SDS011;10734;44.792;20.482;2022-10-19T07:50:32;34.78;;;21.98;;
21152;SDS011;10734;44.792;20.482;2022-10-19T07:52:59;53.53;;;24.08;;
21152;SDS011;10734;44.792;20.482;2022-10-19T07:55:27;36.20;;;24.35;;
21152;SDS011;10734;44.792;20.482;2022-10-19T07:57:54;35.35;;;22.05;;
21152;SDS011;10734;44.792;20.482;2022-10-19T08:00:21;37.00;;;25.25;;
21152;SDS011;10734;44.792;20.482;2022-10-19T08:02:47;42.85;;;23.88;;
21152;SDS011;10734;44.792;20.482;2022-10-19T08:05:34;40.35;;;24.13;;
21152;SDS011;10734;44.792;20.482;2022-10-19T08:08:01;36.70;;;23.60;;
21152;SDS011;10734;44.792;20.482;2022-10-19T08:10:28;36.70;;;22.25;;
21152;SDS011;10734;44.792;20.482;2022-10-19T08:12:54;36.97;;;23.05;;
21152;SDS011;10734;44.792;20.482;2022-10-19T08:15:21;36.78;;;22.60;;
21152;SDS011;10734;44.792;20.482;2022-10-19T08:17:48;42.38;;;22.70;;
21152;SDS011;10734;44.792;20.482;2022-10-19T08:20:14;45.70;;;24.80;;
21152;SDS011;10734;44.792;20.482;2022-10-19T08:22:41;35.47;;;23.05;;
21152;SDS011;10734;44.792;20.482;2022-10-19T08:25:10;37.13;;;23.25;;
21152;SDS011;10734;44.792;20.482;2022-10-19T08:27:37;37.03;;;22.45;;
21152;SDS011;10734;44.792;20.482;2022-10-19T08:30:03;36.15;;;23.45;;
21152;SDS011;10734;44.792;20.482;2022-10-19T08:32:30;41.95;;;22.17;;
21152;SDS011;10734;44.792;20.482;2022-10-19T08:34:57;33.50;;;21.75;;
21152;SDS011;10734;44.792;20.482;2022-10-19T08:37:24;42.92;;;23.05;;
21152;SDS011;10734;44.792;20.482;2022-10-19T08:40:16;40.28;;;22.98;;
21152;SDS011;10734;44.792;20.482;2022-10-19T08:45:55;32.35;;;22.77;;
21152;SDS011;10734;44.792;20.482;2022-10-19T08:48:33;29.70;;;21.23;;
21152;SDS011;10734;44.792;20.482;2022-10-19T08:51:03;32.10;;;22.02;;
21152;SDS011;10734;44.792;20.482;2022-10-19T08:56:33;36.85;;;22.58;;
21152;SDS011;10734;44.792;20.482;2022-10-19T08:59:26;34.97;;;22.20;;
21152;SDS011;10734;44.792;20.482;2022-10-19T09:02:16;33.85;;;21.55;;
21152;SDS011;10734;44.792;20.482;2022-10-19T09:04:53;36.00;;;22.00;;
21152;SDS011;10734;44.792;20.482;2022-10-19T09:07:27;31.05;;;22.33;;
21152;SDS011;10734;44.792;20.482;2022-10-19T09:10:00;33.20;;;23.35;;
21152;SDS011;10734;44.792;20.482;2022-10-19T09:12:43;39.88;;;23.25;;
21152;SDS011;10734;44.792;20.482;2022-10-19T09:15:12;35.40;;;22.65;;
21152;SDS011;10734;44.792;20.482;2022-10-19T09:17:43;33.40;;;22.15;;
21152;SDS011;10734;44.792;20.482;2022-10-19T09:20:19;34.58;;;21.83;;
21152;SDS011;10734;44.792;20.482;2022-10-19T09:22:51;40.42;;;23.30;;
21152;SDS011;10734;44.792;20.482;2022-10-19T09:25:27;38.22;;;20.90;;
21152;SDS011;10734;44.792;20.482;2022-10-19T09:27:59;43.70;;;21.48;;
21152;SDS011;10734;44.792;20.482;2022-10-19T09:30:45;32.70;;;22.88;;
21152;SDS011;10734;44.792;20.482;2022-10-19T09:33:23;28.80;;;19.38;;
21152;SDS011;10734;44.792;20.482;2022-10-19T09:35:56;36.25;;;21.23;;
21152;SDS011;10734;44.792;20.482;2022-10-19T09:38:26;29.58;;;20.60;;
21152;SDS011;10734;44.792;20.482;2022-10-19T09:40:55;34.38;;;19.13;;
21152;SDS011;10734;44.792;20.482;2022-10-19T09:43:23;32.88;;;20.13;;
21152;SDS011;10734;44.792;20.482;2022-10-19T09:48:50;30.60;;;18.27;;
21152;SDS011;10734;44.792;20.482;2022-10-19T09:51:18;36.17;;;19.02;;
21152;SDS011;10734;44.792;20.482;2022-10-19T09:53:49;33.45;;;18.20;;
21152;SDS011;10734;44.792;20.482;2022-10-19T09:58:48;21.98;;;14.63;;
21152;SDS011;10734;44.792;20.482;2022-10-19T10:01:37;28.77;;;13.65;;
21152;SDS011;10734;44.792;20.482;2022-10-19T10:04:16;22.20;;;13.65;;
21152;SDS011;10734;44.792;20.482;2022-10-19T10:06:45;35.33;;;16.80;;
21152;SDS011;10734;44.792;20.482;2022-10-19T10:09:17;29.80;;;14.77;;
21152;SDS011;10734;44.792;20.482;2022-10-19T10:11:48;29.17;;;14.23;;
21152;SDS011;10734;44.792;20.482;2022-10-19T10:14:18;22.98;;;14.73;;
21152;SDS011;10734;44.792;20.482;2022-10-19T10:17:00;31.52;;;14.90;;
21152;SDS011;10734;44.792;20.482;2022-10-19T10:19:49;34.70;;;15.30;;
21152;SDS011;10734;44.792;20.482;2022-10-19T10:22:36;23.60;;;13.13;;
21152;SDS011;10734;44.792;20.482;2022-10-19T10:25:15;23.73;;;14.65;;
21152;SDS011;10734;44.792;20.482;2022-10-19T10:27:43;17.33;;;13.65;;
21152;SDS011;10734;44.792;20.482;2022-10-19T10:30:20;23.95;;;14.40;;
21152;SDS011;10734;44.792;20.482;2022-10-19T10:32:48;23.35;;;13.90;;
21152;SDS011;10734;44.792;20.482;2022-10-19T10:35:17;19.17;;;13.23;;
21152;SDS011;10734;44.792;20.482;2022-10-19T10:37:47;22.15;;;14.77;;
21152;SDS011;10734;44.792;20.482;2022-10-19T10:40:22;30.20;;;13.80;;
21152;SDS011;10734;44.792;20.482;2022-10-19T10:42:52;23.35;;;13.48;;
21152;SDS011;10734;44.792;20.482;2022-10-19T10:45:22;22.30;;;13.82;;
21152;SDS011;10734;44.792;20.482;2022-10-19T10:50:53;34.90;;;13.27;;
21152;SDS011;10734;44.792;20.482;2022-10-19T10:53:41;20.33;;;11.88;;
21152;SDS011;10734;44.792;20.482;2022-10-19T10:56:27;15.15;;;10.45;;
21152;SDS011;10734;44.792;20.482;2022-10-19T10:59:12;23.88;;;11.40;;
21152;SDS011;10734;44.792;20.482;2022-10-19T11:01:50;15.45;;;9.70;;
21152;SDS011;10734;44.792;20.482;2022-10-19T11:04:28;24.98;;;12.68;;
21152;SDS011;10734;44.792;20.482;2022-10-19T11:07:04;32.13;;;11.70;;
21152;SDS011;10734;44.792;20.482;2022-10-19T11:09:45;17.42;;;11.05;;
21152;SDS011;10734;44.792;20.482;2022-10-19T11:12:18;22.33;;;10.18;;
21152;SDS011;10734;44.792;20.482;2022-10-19T11:20:40;16.83;;;9.90;;
21152;SDS011;10734;44.792;20.482;2022-10-19T11:28:49;32.40;;;9.73;;
21152;SDS011;10734;44.792;20.482;2022-10-19T11:31:46;13.50;;;9.27;;
21152;SDS011;10734;44.792;20.482;2022-10-19T11:37:32;17.95;;;9.18;;
21152;SDS011;10734;44.792;20.482;2022-10-19T11:40:27;22.10;;;10.02;;
21152;SDS011;10734;44.792;20.482;2022-10-19T11:43:39;13.80;;;8.80;;
21152;SDS011;10734;44.792;20.482;2022-10-19T11:46:22;17.58;;;7.97;;
21152;SDS011;10734;44.792;20.482;2022-10-19T11:48:57;18.58;;;8.77;;
21152;SDS011;10734;44.792;20.482;2022-10-19T11:51:54;13.35;;;8.73;;
21152;SDS011;10734;44.792;20.482;2022-10-19T11:57:15;18.20;;;9.45;;
21152;SDS011;10734;44.792;20.482;2022-10-19T12:05:18;24.90;;;11.60;;
21152;SDS011;10734;44.792;20.482;2022-10-19T12:07:55;19.40;;;10.87;;
21152;SDS011;10734;44.792;20.482;2022-10-19T12:13:25;23.80;;;12.77;;
21152;SDS011;10734;44.792;20.482;2022-10-19T12:16:06;19.92;;;13.15;;
21152;SDS011;10734;44.792;20.482;2022-10-19T12:18:52;26.73;;;12.25;;
21152;SDS011;10734;44.792;20.482;2022-10-19T12:21:40;20.92;;;13.43;;
21152;SDS011;10734;44.792;20.482;2022-10-19T12:24:16;27.42;;;13.77;;
21152;SDS011;10734;44.792;20.482;2022-10-19T12:26:45;28.20;;;15.30;;
21152;SDS011;10734;44.792;20.482;2022-10-19T12:29:26;20.67;;;14.48;;
21152;SDS011;10734;44.792;20.482;2022-10-19T12:31:56;22.50;;;13.60;;
21152;SDS011;10734;44.792;20.482;2022-10-19T12:34:30;30.83;;;14.52;;
21152;SDS011;10734;44.792;20.482;2022-10-19T12:37:10;27.08;;;15.27;;
21152;SDS011;10734;44.792;20.482;2022-10-19T12:42:30;26.13;;;15.45;;
21152;SDS011;10734;44.792;20.482;2022-10-19T12:51:11;24.20;;;16.13;;
21152;SDS011;10734;44.792;20.482;2022-10-19T12:53:32;39.45;;;16.48;;
21152;SDS011;10734;44.792;20.482;2022-10-19T13:04:05;34.10;;;17.60;;
21152;SDS011;10734;44.792;20.482;2022-10-19T13:06:36;32.03;;;15.48;;
21152;SDS011;10734;44.792;20.482;2022-10-19T13:09:12;30.30;;;16.58;;
21152;SDS011;10734;44.792;20.482;2022-10-19T13:12:25;37.28;;;17.63;;
21152;SDS011;10734;44.792;20.482;2022-10-19T13:22:45;31.15;;;17.65;;
21152;SDS011;10734;44.792;20.482;2022-10-19T13:25:21;28.77;;;18.02;;
21152;SDS011;10734;44.792;20.482;2022-10-19T13:38:25;33.13;;;21.45;;
21152;SDS011;10734;44.792;20.482;2022-10-19T13:43:32;37.92;;;22.42;;
21152;SDS011;10734;44.792;20.482;2022-10-19T13:46:05;40.35;;;22.13;;
21152;SDS011;10734;44.792;20.482;2022-10-19T13:48:36;30.00;;;21.38;;
21152;SDS011;10734;44.792;20.482;2022-10-19T13:51:07;33.78;;;22.67;;
21152;SDS011;10734;44.792;20.482;2022-10-19T13:53:46;30.95;;;23.17;;
21152;SDS011;10734;44.792;20.482;2022-10-19T14:07:16;37.60;;;22.65;;
21152;SDS011;10734;44.792;20.482;2022-10-19T14:12:42;35.13;;;23.35;;
21152;SDS011;10734;44.792;20.482;2022-10-19T14:17:43;34.58;;;21.42;;
21152;SDS011;10734;44.792;20.482;2022-10-19T14:23:16;32.45;;;20.50;;
21152;SDS011;10734;44.792;20.482;2022-10-19T14:25:51;29.25;;;19.83;;
21152;SDS011;10734;44.792;20.482;2022-10-19T14:28:29;38.42;;;20.40;;
21152;SDS011;10734;44.792;20.482;2022-10-19T14:33:34;29.25;;;16.80;;
21152;SDS011;10734;44.792;20.482;2022-10-19T14:36:04;36.00;;;20.40;;
21152;SDS011;10734;44.792;20.482;2022-10-19T14:38:39;28.98;;;21.20;;
21152;SDS011;10734;44.792;20.482;2022-10-19T14:41:18;30.88;;;18.52;;
21152;SDS011;10734;44.792;20.482;2022-10-19T14:43:51;34.15;;;19.80;;
21152;SDS011;10734;44.792;20.482;2022-10-19T14:46:20;27.65;;;18.13;;
21152;SDS011;10734;44.792;20.482;2022-10-19T14:49:00;25.05;;;18.83;;
21152;SDS011;10734;44.792;20.482;2022-10-19T14:56:38;32.88;;;20.23;;
21152;SDS011;10734;44.792;20.482;2022-10-19T14:59:11;34.78;;;20.15;;
21152;SDS011;10734;44.792;20.482;2022-10-19T15:01:49;31.33;;;19.50;;
21152;SDS011;10734;44.792;20.482;2022-10-19T15:04:19;38.92;;;19.83;;
21152;SDS011;10734;44.792;20.482;2022-10-19T15:06:49;44.10;;;21.20;;
21152;SDS011;10734;44.792;20.482;2022-10-19T15:09:30;31.67;;;20.48;;
21152;SDS011;10734;44.792;20.482;2022-10-19T15:12:14;33.95;;;21.52;;
21152;SDS011;10734;44.792;20.482;2022-10-19T15:14:44;31.10;;;20.27;;
21152;SDS011;10734;44.792;20.482;2022-10-19T15:17:26;31.83;;;20.70;;
21152;SDS011;10734;44.792;20.482;2022-10-19T15:32:34;28.90;;;19.10;;
21152;SDS011;10734;44.792;20.482;2022-10-19T15:37:45;28.63;;;18.25;;
21152;SDS011;10734;44.792;20.482;2022-10-19T15:40:19;33.30;;;21.80;;
21152;SDS011;10734;44.792;20.482;2022-10-19T15:42:50;28.85;;;20.17;;
21152;SDS011;10734;44.792;20.482;2022-10-19T15:50:36;33.53;;;19.70;;
21152;SDS011;10734;44.792;20.482;2022-10-19T15:53:07;40.90;;;22.08;;
21152;SDS011;10734;44.792;20.482;2022-10-19T15:55:34;28.17;;;19.60;;
21152;SDS011;10734;44.792;20.482;2022-10-19T15:58:04;27.17;;;18.70;;
21152;SDS011;10734;44.792;20.482;2022-10-19T16:00:31;33.15;;;20.08;;
21152;SDS011;10734;44.792;20.482;2022-10-19T16:02:58;28.90;;;18.35;;
21152;SDS011;10734;44.792;20.482;2022-10-19T16:05:25;37.88;;;21.75;;
21152;SDS011;10734;44.792;20.482;2022-10-19T16:07:51;35.72;;;22.55;;
21152;SDS011;10734;44.792;20.482;2022-10-19T16:10:19;34.53;;;23.48;;
21152;SDS011;10734;44.792;20.482;2022-10-19T16:12:48;34.00;;;20.75;;
21152;SDS011;10734;44.792;20.482;2022-10-19T16:15:16;32.88;;;21.67;;
21152;SDS011;10734;44.792;20.482;2022-10-19T16:17:48;39.05;;;23.42;;
21152;SDS011;10734;44.792;20.482;2022-10-19T16:20:19;40.67;;;22.33;;
21152;SDS011;10734;44.792;20.482;2022-10-19T16:22:47;38.22;;;21.48;;
21152;SDS011;10734;44.792;20.482;2022-10-19T16:25:14;35.72;;;22.25;;
21152;SDS011;10734;44.792;20.482;2022-10-19T16:27:41;42.13;;;21.52;;
21152;SDS011;10734;44.792;20.482;2022-10-19T16:30:07;29.90;;;19.00;;
21152;SDS011;10734;44.792;20.482;2022-10-19T16:32:35;31.00;;;13.75;;
21152;SDS011;10734;44.792;20.482;2022-10-19T16:35:02;23.23;;;9.80;;
21152;SDS011;10734;44.792;20.482;2022-10-19T16:37:28;14.50;;;9.13;;
21152;SDS011;10734;44.792;20.482;2022-10-19T16:39:55;19.85;;;7.80;;
21152;SDS011;10734;44.792;20.482;2022-10-19T16:42:22;16.00;;;7.72;;
21152;SDS011;10734;44.792;20.482;2022-10-19T16:44:53;22.95;;;6.53;;
21152;SDS011;10734;44.792;20.482;2022-10-19T16:47:20;23.70;;;7.10;;
21152;SDS011;10734;44.792;20.482;2022-10-19T16:49:47;13.95;;;6.82;;
21152;SDS011;10734;44.792;20.482;2022-10-19T16:52:13;16.92;;;7.05;;
21152;SDS011;10734;44.792;20.482;2022-10-19T16:54:40;21.35;;;6.65;;
21152;SDS011;10734;44.792;20.482;2022-10-19T16:57:07;16.48;;;6.90;;
21152;SDS011;10734;44.792;20.482;2022-10-19T16:59:35;13.32;;;7.40;;
21152;SDS011;10734;44.792;20.482;2022-10-19T17:02:01;93.18;;;39.90;;
21152;SDS011;10734;44.792;20.482;2022-10-19T17:04:28;32.60;;;16.08;;
21152;SDS011;10734;44.792;20.482;2022-10-19T17:06:55;19.65;;;8.02;;
21152;SDS011;10734;44.792;20.482;2022-10-19T17:09:22;14.35;;;7.10;;
21152;SDS011;10734;44.792;20.482;2022-10-19T17:12:07;27.45;;;7.53;;
21152;SDS011;10734;44.792;20.482;2022-10-19T17:14:34;19.08;;;6.95;;
21152;SDS011;10734;44.792;20.482;2022-10-19T17:17:02;17.98;;;6.95;;
21152;SDS011;10734;44.792;20.482;2022-10-19T17:19:28;14.38;;;6.70;;
21152;SDS011;10734;44.792;20.482;2022-10-19T17:21:55;13.20;;;7.38;;